sensor_id;sensor_type;location;lat;lon;timestamp;P1;durP1;ratioP1;P2;durP2;ratioP2
15192;SDS011;7697;51.630;7.484;2023-04-10T00:03:01;114.97;;;69.60;;
15192;SDS011;7697;51.630;7.484;2023-04-10T00:08:03;117.95;;;72.40;;
15192;SDS011;7697;51.630;7.484;2023-04-10T00:13:07;111.18;;;71.18;;
15192;SDS011;7697;51.630;7.484;2023-04-10T00:18:08;104.28;;;66.63;;
15192;SDS011;7697;51.630;7.484;2023-04-10T00:23:10;107.60;;;66.80;;
15192;SDS011;7697;51.630;7.484;2023-04-10T00:28:13;104.70;;;68.30;;
15192;SDS011;7697;51.630;7.484;2023-04-10T00:33:16;113.68;;;71.32;;
15192;SDS011;7697;51.630;7.484;2023-04-10T00:38:18;112.05;;;69.88;;
15192;SDS011;7697;51.630;7.484;2023-04-10T00:43:21;112.78;;;71.75;;
15192;SDS011;7697;51.630;7.484;2023-04-10T00:48:23;111.72;;;72.88;;
15192;SDS011;7697;51.630;7.484;2023-04-10T00:53:25;119.53;;;74.70;;
15192;SDS011;7697;51.630;7.484;2023-04-10T00:58:30;125.07;;;76.63;;
15192;SDS011;7697;51.630;7.484;2023-04-10T01:03:31;122.40;;;78.10;;
15192;SDS011;7697;51.630;7.484;2023-04-10T01:08:35;128.82;;;80.68;;
15192;SDS011;7697;51.630;7.484;2023-04-10T01:13:49;125.20;;;78.45;;
15192;SDS011;7697;51.630;7.484;2023-04-10T01:18:56;127.55;;;80.82;;
15192;SDS011;7697;51.630;7.484;2023-04-10T01:24:06;119.80;;;73.13;;
15192;SDS011;7697;51.630;7.484;2023-04-10T01:29:20;115.28;;;72.55;;
15192;SDS011;7697;51.630;7.484;2023-04-10T01:34:28;117.15;;;75.05;;
15192;SDS011;7697;51.630;7.484;2023-04-10T01:39:34;116.03;;;73.55;;
15192;SDS011;7697;51.630;7.484;2023-04-10T01:44:40;125.53;;;79.15;;
15192;SDS011;7697;51.630;7.484;2023-04-10T01:49:43;131.50;;;82.75;;
15192;SDS011;7697;51.630;7.484;2023-04-10T01:54:47;126.03;;;77.53;;
15192;SDS011;7697;51.630;7.484;2023-04-10T01:59:51;119.07;;;78.13;;
15192;SDS011;7697;51.630;7.484;2023-04-10T02:04:53;120.20;;;76.03;;
15192;SDS011;7697;51.630;7.484;2023-04-10T02:09:57;119.32;;;77.28;;
15192;SDS011;7697;51.630;7.484;2023-04-10T02:15:04;114.15;;;72.45;;
15192;SDS011;7697;51.630;7.484;2023-04-10T02:20:08;116.47;;;75.35;;
15192;SDS011;7697;51.630;7.484;2023-04-10T02:25:11;117.65;;;75.82;;
15192;SDS011;7697;51.630;7.484;2023-04-10T02:30:14;118.53;;;74.68;;
15192;SDS011;7697;51.630;7.484;2023-04-10T02:35:16;111.57;;;69.50;;
15192;SDS011;7697;51.630;7.484;2023-04-10T02:40:18;119.30;;;74.32;;
15192;SDS011;7697;51.630;7.484;2023-04-10T02:45:22;118.05;;;72.78;;
15192;SDS011;7697;51.630;7.484;2023-04-10T02:50:23;114.45;;;72.65;;
15192;SDS011;7697;51.630;7.484;2023-04-10T02:55:28;113.10;;;69.63;;
15192;SDS011;7697;51.630;7.484;2023-04-10T03:00:32;122.72;;;78.30;;
15192;SDS011;7697;51.630;7.484;2023-04-10T03:05:34;113.00;;;69.60;;
15192;SDS011;7697;51.630;7.484;2023-04-10T03:10:36;121.13;;;73.15;;
15192;SDS011;7697;51.630;7.484;2023-04-10T03:15:39;113.90;;;68.80;;
15192;SDS011;7697;51.630;7.484;2023-04-10T03:20:41;110.23;;;68.53;;
15192;SDS011;7697;51.630;7.484;2023-04-10T03:25:43;112.03;;;68.57;;
15192;SDS011;7697;51.630;7.484;2023-04-10T03:30:46;121.00;;;74.43;;
15192;SDS011;7697;51.630;7.484;2023-04-10T03:35:49;129.13;;;77.23;;
15192;SDS011;7697;51.630;7.484;2023-04-10T03:40:51;121.73;;;76.20;;
15192;SDS011;7697;51.630;7.484;2023-04-10T03:45:54;114.53;;;71.73;;
15192;SDS011;7697;51.630;7.484;2023-04-10T03:50:56;120.60;;;75.00;;
15192;SDS011;7697;51.630;7.484;2023-04-10T03:55:58;113.47;;;70.73;;
15192;SDS011;7697;51.630;7.484;2023-04-10T04:01:01;117.87;;;73.60;;
15192;SDS011;7697;51.630;7.484;2023-04-10T04:06:04;103.97;;;65.07;;
15192;SDS011;7697;51.630;7.484;2023-04-10T04:11:06;109.07;;;67.40;;
15192;SDS011;7697;51.630;7.484;2023-04-10T04:16:10;111.70;;;70.18;;
15192;SDS011;7697;51.630;7.484;2023-04-10T04:21:12;108.82;;;68.60;;
15192;SDS011;7697;51.630;7.484;2023-04-10T04:26:14;108.43;;;68.53;;
15192;SDS011;7697;51.630;7.484;2023-04-10T04:31:18;103.80;;;65.53;;
15192;SDS011;7697;51.630;7.484;2023-04-10T04:36:20;109.23;;;66.40;;
15192;SDS011;7697;51.630;7.484;2023-04-10T04:41:22;111.30;;;68.87;;
15192;SDS011;7697;51.630;7.484;2023-04-10T04:46:26;113.97;;;69.53;;
15192;SDS011;7697;51.630;7.484;2023-04-10T04:51:28;108.80;;;67.63;;
15192;SDS011;7697;51.630;7.484;2023-04-10T04:56:30;99.50;;;64.13;;
15192;SDS011;7697;51.630;7.484;2023-04-10T05:01:33;105.67;;;66.03;;
15192;SDS011;7697;51.630;7.484;2023-04-10T05:06:35;102.30;;;61.23;;
15192;SDS011;7697;51.630;7.484;2023-04-10T05:11:37;94.07;;;57.93;;
15192;SDS011;7697;51.630;7.484;2023-04-10T05:16:40;97.30;;;60.93;;
15192;SDS011;7697;51.630;7.484;2023-04-10T05:21:42;105.57;;;62.40;;
15192;SDS011;7697;51.630;7.484;2023-04-10T05:26:44;96.27;;;59.33;;
15192;SDS011;7697;51.630;7.484;2023-04-10T05:31:48;93.33;;;58.67;;
15192;SDS011;7697;51.630;7.484;2023-04-10T05:36:50;85.23;;;52.00;;
15192;SDS011;7697;51.630;7.484;2023-04-10T05:41:52;79.97;;;50.87;;
15192;SDS011;7697;51.630;7.484;2023-04-10T05:46:55;70.07;;;45.33;;
15192;SDS011;7697;51.630;7.484;2023-04-10T05:51:58;67.63;;;42.60;;
15192;SDS011;7697;51.630;7.484;2023-04-10T05:56:59;61.87;;;40.10;;
15192;SDS011;7697;51.630;7.484;2023-04-10T06:02:03;61.17;;;39.70;;
15192;SDS011;7697;51.630;7.484;2023-04-10T06:07:05;56.27;;;39.03;;
15192;SDS011;7697;51.630;7.484;2023-04-10T06:12:07;53.87;;;37.47;;
15192;SDS011;7697;51.630;7.484;2023-04-10T06:17:10;57.27;;;39.07;;
15192;SDS011;7697;51.630;7.484;2023-04-10T06:22:12;65.27;;;41.87;;
15192;SDS011;7697;51.630;7.484;2023-04-10T06:27:14;57.60;;;37.90;;
15192;SDS011;7697;51.630;7.484;2023-04-10T06:32:17;57.93;;;39.43;;
15192;SDS011;7697;51.630;7.484;2023-04-10T06:37:25;56.53;;;37.40;;
15192;SDS011;7697;51.630;7.484;2023-04-10T06:42:28;61.10;;;39.57;;
15192;SDS011;7697;51.630;7.484;2023-04-10T06:47:31;60.08;;;39.38;;
15192;SDS011;7697;51.630;7.484;2023-04-10T06:52:33;60.28;;;39.63;;
15192;SDS011;7697;51.630;7.484;2023-04-10T06:57:35;53.93;;;36.17;;
15192;SDS011;7697;51.630;7.484;2023-04-10T07:02:38;53.28;;;35.63;;
15192;SDS011;7697;51.630;7.484;2023-04-10T07:07:40;46.10;;;31.83;;
15192;SDS011;7697;51.630;7.484;2023-04-10T07:12:41;39.13;;;27.85;;
15192;SDS011;7697;51.630;7.484;2023-04-10T07:17:46;39.15;;;27.02;;
15192;SDS011;7697;51.630;7.484;2023-04-10T07:22:48;39.60;;;27.95;;
15192;SDS011;7697;51.630;7.484;2023-04-10T07:27:50;38.30;;;25.05;;
15192;SDS011;7697;51.630;7.484;2023-04-10T07:32:53;32.47;;;23.83;;
15192;SDS011;7697;51.630;7.484;2023-04-10T07:37:55;29.55;;;22.60;;
15192;SDS011;7697;51.630;7.484;2023-04-10T07:42:56;27.50;;;19.80;;
15192;SDS011;7697;51.630;7.484;2023-04-10T07:48:00;29.30;;;21.20;;
15192;SDS011;7697;51.630;7.484;2023-04-10T07:53:02;25.45;;;21.02;;
15192;SDS011;7697;51.630;7.484;2023-04-10T07:58:07;26.65;;;19.38;;
15192;SDS011;7697;51.630;7.484;2023-04-10T08:03:10;26.25;;;18.52;;
15192;SDS011;7697;51.630;7.484;2023-04-10T08:08:14;22.92;;;17.77;;
15192;SDS011;7697;51.630;7.484;2023-04-10T08:13:16;16.83;;;12.43;;
15192;SDS011;7697;51.630;7.484;2023-04-10T08:18:20;8.60;;;7.38;;
15192;SDS011;7697;51.630;7.484;2023-04-10T08:23:21;6.25;;;4.80;;
15192;SDS011;7697;51.630;7.484;2023-04-10T08:28:23;4.30;;;3.90;;
15192;SDS011;7697;51.630;7.484;2023-04-10T08:33:26;4.10;;;3.70;;
15192;SDS011;7697;51.630;7.484;2023-04-10T08:38:28;4.18;;;3.65;;
15192;SDS011;7697;51.630;7.484;2023-04-10T08:43:30;3.90;;;3.50;;
15192;SDS011;7697;51.630;7.484;2023-04-10T08:48:37;3.80;;;3.50;;
15192;SDS011;7697;51.630;7.484;2023-04-10T08:53:47;3.53;;;3.20;;
15192;SDS011;7697;51.630;7.484;2023-04-10T08:58:51;5.55;;;3.45;;
15192;SDS011;7697;51.630;7.484;2023-04-10T09:03:55;3.78;;;3.47;;
15192;SDS011;7697;51.630;7.484;2023-04-10T09:08:57;3.42;;;3.13;;
15192;SDS011;7697;51.630;7.484;2023-04-10T09:14:00;3.35;;;3.05;;
15192;SDS011;7697;51.630;7.484;2023-04-10T09:19:03;5.15;;;3.30;;
15192;SDS011;7697;51.630;7.484;2023-04-10T09:24:05;3.33;;;3.03;;
15192;SDS011;7697;51.630;7.484;2023-04-10T09:29:07;3.10;;;2.80;;
15192;SDS011;7697;51.630;7.484;2023-04-10T09:34:13;2.95;;;2.65;;
15192;SDS011;7697;51.630;7.484;2023-04-10T09:39:16;3.10;;;2.80;;
15192;SDS011;7697;51.630;7.484;2023-04-10T09:44:26;2.58;;;2.30;;
15192;SDS011;7697;51.630;7.484;2023-04-10T09:49:32;2.60;;;2.40;;
15192;SDS011;7697;51.630;7.484;2023-04-10T09:54:45;2.90;;;2.60;;
15192;SDS011;7697;51.630;7.484;2023-04-10T09:59:48;2.70;;;2.50;;
15192;SDS011;7697;51.630;7.484;2023-04-10T10:04:52;2.60;;;2.40;;
15192;SDS011;7697;51.630;7.484;2023-04-10T10:09:54;2.78;;;2.58;;
15192;SDS011;7697;51.630;7.484;2023-04-10T10:14:59;2.30;;;2.10;;
15192;SDS011;7697;51.630;7.484;2023-04-10T10:20:06;2.50;;;2.30;;
15192;SDS011;7697;51.630;7.484;2023-04-10T10:25:10;2.60;;;2.40;;
15192;SDS011;7697;51.630;7.484;2023-04-10T10:30:14;2.40;;;2.20;;
15192;SDS011;7697;51.630;7.484;2023-04-10T10:35:19;2.60;;;2.40;;
15192;SDS011;7697;51.630;7.484;2023-04-10T10:40:23;2.60;;;2.40;;
15192;SDS011;7697;51.630;7.484;2023-04-10T10:45:31;2.42;;;2.22;;
15192;SDS011;7697;51.630;7.484;2023-04-10T10:50:50;2.50;;;2.30;;
15192;SDS011;7697;51.630;7.484;2023-04-10T10:55:55;2.53;;;2.33;;
15192;SDS011;7697;51.630;7.484;2023-04-10T11:01:03;2.50;;;2.30;;
15192;SDS011;7697;51.630;7.484;2023-04-10T11:06:08;2.40;;;2.20;;
15192;SDS011;7697;51.630;7.484;2023-04-10T11:11:12;2.28;;;2.08;;
15192;SDS011;7697;51.630;7.484;2023-04-10T11:16:16;2.80;;;2.17;;
15192;SDS011;7697;51.630;7.484;2023-04-10T11:21:20;2.50;;;2.30;;
15192;SDS011;7697;51.630;7.484;2023-04-10T11:26:34;2.63;;;2.10;;
15192;SDS011;7697;51.630;7.484;2023-04-10T11:31:37;2.38;;;2.17;;
15192;SDS011;7697;51.630;7.484;2023-04-10T11:36:41;2.83;;;2.28;;
15192;SDS011;7697;51.630;7.484;2023-04-10T11:41:44;2.58;;;2.38;;
15192;SDS011;7697;51.630;7.484;2023-04-10T11:46:46;2.40;;;2.20;;
15192;SDS011;7697;51.630;7.484;2023-04-10T11:51:51;2.75;;;2.38;;
15192;SDS011;7697;51.630;7.484;2023-04-10T11:56:54;2.40;;;2.20;;
15192;SDS011;7697;51.630;7.484;2023-04-10T12:02:04;2.17;;;2.00;;
15192;SDS011;7697;51.630;7.484;2023-04-10T12:07:09;2.20;;;2.00;;
15192;SDS011;7697;51.630;7.484;2023-04-10T12:12:11;2.72;;;2.10;;
15192;SDS011;7697;51.630;7.484;2023-04-10T12:17:14;2.15;;;1.95;;
15192;SDS011;7697;51.630;7.484;2023-04-10T12:22:18;2.10;;;2.00;;
15192;SDS011;7697;51.630;7.484;2023-04-10T12:27:21;2.20;;;2.00;;
15192;SDS011;7697;51.630;7.484;2023-04-10T12:32:24;2.20;;;2.00;;
15192;SDS011;7697;51.630;7.484;2023-04-10T12:42:48;2.20;;;2.00;;
15192;SDS011;7697;51.630;7.484;2023-04-10T12:47:50;2.20;;;2.00;;
15192;SDS011;7697;51.630;7.484;2023-04-10T12:53:01;2.10;;;1.90;;
15192;SDS011;7697;51.630;7.484;2023-04-10T12:58:15;2.25;;;2.05;;
15192;SDS011;7697;51.630;7.484;2023-04-10T13:03:19;2.40;;;2.20;;
15192;SDS011;7697;51.630;7.484;2023-04-10T13:08:22;2.40;;;2.20;;
15192;SDS011;7697;51.630;7.484;2023-04-10T13:13:23;2.22;;;2.03;;
15192;SDS011;7697;51.630;7.484;2023-04-10T13:18:26;2.45;;;2.25;;
15192;SDS011;7697;51.630;7.484;2023-04-10T13:23:29;2.10;;;1.90;;
15192;SDS011;7697;51.630;7.484;2023-04-10T13:28:31;2.58;;;2.38;;
15192;SDS011;7697;51.630;7.484;2023-04-10T13:33:33;2.20;;;2.00;;
15192;SDS011;7697;51.630;7.484;2023-04-10T13:38:36;2.30;;;2.10;;
15192;SDS011;7697;51.630;7.484;2023-04-10T13:43:38;2.40;;;2.20;;
15192;SDS011;7697;51.630;7.484;2023-04-10T13:48:40;2.45;;;2.03;;
15192;SDS011;7697;51.630;7.484;2023-04-10T13:53:44;2.13;;;1.92;;
15192;SDS011;7697;51.630;7.484;2023-04-10T13:58:45;2.30;;;2.10;;
15192;SDS011;7697;51.630;7.484;2023-04-10T14:03:47;2.20;;;2.00;;
15192;SDS011;7697;51.630;7.484;2023-04-10T14:08:50;2.60;;;2.40;;
15192;SDS011;7697;51.630;7.484;2023-04-10T14:13:52;9.27;;;2.45;;
15192;SDS011;7697;51.630;7.484;2023-04-10T14:18:54;2.33;;;2.13;;
15192;SDS011;7697;51.630;7.484;2023-04-10T14:23:57;2.25;;;2.05;;
15192;SDS011;7697;51.630;7.484;2023-04-10T14:29:00;3.25;;;2.00;;
15192;SDS011;7697;51.630;7.484;2023-04-10T14:34:01;2.33;;;2.13;;
15192;SDS011;7697;51.630;7.484;2023-04-10T14:39:04;3.25;;;2.60;;
15192;SDS011;7697;51.630;7.484;2023-04-10T14:44:06;2.50;;;2.30;;
15192;SDS011;7697;51.630;7.484;2023-04-10T14:49:08;2.35;;;2.15;;
15192;SDS011;7697;51.630;7.484;2023-04-10T14:54:11;2.50;;;2.30;;
15192;SDS011;7697;51.630;7.484;2023-04-10T14:59:15;3.42;;;2.08;;
15192;SDS011;7697;51.630;7.484;2023-04-10T15:04:17;2.03;;;1.90;;
15192;SDS011;7697;51.630;7.484;2023-04-10T15:09:20;2.55;;;2.08;;
15192;SDS011;7697;51.630;7.484;2023-04-10T15:14:22;3.85;;;3.13;;
15192;SDS011;7697;51.630;7.484;2023-04-10T15:19:24;2.60;;;2.40;;
15192;SDS011;7697;51.630;7.484;2023-04-10T15:24:28;2.50;;;2.30;;
15192;SDS011;7697;51.630;7.484;2023-04-10T15:29:29;2.65;;;2.30;;
15192;SDS011;7697;51.630;7.484;2023-04-10T15:34:31;2.33;;;2.13;;
15192;SDS011;7697;51.630;7.484;2023-04-10T15:39:35;2.42;;;2.22;;
15192;SDS011;7697;51.630;7.484;2023-04-10T15:44:37;3.08;;;2.22;;
15192;SDS011;7697;51.630;7.484;2023-04-10T15:49:39;2.80;;;2.28;;
15192;SDS011;7697;51.630;7.484;2023-04-10T15:54:42;2.28;;;2.08;;
15192;SDS011;7697;51.630;7.484;2023-04-10T15:59:44;2.97;;;2.70;;
15192;SDS011;7697;51.630;7.484;2023-04-10T16:04:46;2.45;;;2.25;;
15192;SDS011;7697;51.630;7.484;2023-04-10T16:09:49;2.60;;;2.40;;
15192;SDS011;7697;51.630;7.484;2023-04-10T16:14:52;2.60;;;2.40;;
15192;SDS011;7697;51.630;7.484;2023-04-10T16:19:55;2.47;;;2.28;;
15192;SDS011;7697;51.630;7.484;2023-04-10T16:24:58;3.10;;;2.75;;
15192;SDS011;7697;51.630;7.484;2023-04-10T16:30:03;3.97;;;2.90;;
15192;SDS011;7697;51.630;7.484;2023-04-10T16:35:08;2.72;;;2.50;;
15192;SDS011;7697;51.630;7.484;2023-04-10T16:40:15;7.25;;;2.55;;
15192;SDS011;7697;51.630;7.484;2023-04-10T16:45:18;3.15;;;2.50;;
15192;SDS011;7697;51.630;7.484;2023-04-10T16:50:20;3.08;;;2.67;;
15192;SDS011;7697;51.630;7.484;2023-04-10T16:55:24;2.95;;;2.65;;
15192;SDS011;7697;51.630;7.484;2023-04-10T17:00:26;4.45;;;3.65;;
15192;SDS011;7697;51.630;7.484;2023-04-10T17:05:31;3.10;;;2.80;;
15192;SDS011;7697;51.630;7.484;2023-04-10T17:10:41;2.97;;;2.70;;
15192;SDS011;7697;51.630;7.484;2023-04-10T17:15:44;3.28;;;2.60;;
15192;SDS011;7697;51.630;7.484;2023-04-10T17:20:47;3.45;;;2.67;;
15192;SDS011;7697;51.630;7.484;2023-04-10T17:25:51;2.97;;;2.50;;
15192;SDS011;7697;51.630;7.484;2023-04-10T17:30:53;4.57;;;2.70;;
15192;SDS011;7697;51.630;7.484;2023-04-10T17:36:01;3.13;;;2.40;;
15192;SDS011;7697;51.630;7.484;2023-04-10T17:41:08;3.38;;;2.30;;
15192;SDS011;7697;51.630;7.484;2023-04-10T17:46:14;3.95;;;2.05;;
15192;SDS011;7697;51.630;7.484;2023-04-10T17:51:16;2.75;;;2.35;;
15192;SDS011;7697;51.630;7.484;2023-04-10T17:56:19;2.67;;;2.40;;
15192;SDS011;7697;51.630;7.484;2023-04-10T18:01:21;3.00;;;2.25;;
15192;SDS011;7697;51.630;7.484;2023-04-10T18:06:25;3.15;;;2.72;;
15192;SDS011;7697;51.630;7.484;2023-04-10T18:11:28;3.72;;;2.05;;
15192;SDS011;7697;51.630;7.484;2023-04-10T18:16:30;3.05;;;1.80;;
15192;SDS011;7697;51.630;7.484;2023-04-10T18:21:31;2.63;;;2.00;;
15192;SDS011;7697;51.630;7.484;2023-04-10T18:26:36;4.47;;;2.45;;
15192;SDS011;7697;51.630;7.484;2023-04-10T18:31:38;3.42;;;2.00;;
15192;SDS011;7697;51.630;7.484;2023-04-10T18:36:40;2.80;;;2.42;;
15192;SDS011;7697;51.630;7.484;2023-04-10T18:41:43;3.97;;;2.85;;
15192;SDS011;7697;51.630;7.484;2023-04-10T18:46:45;3.40;;;2.33;;
15192;SDS011;7697;51.630;7.484;2023-04-10T18:51:47;5.22;;;2.83;;
15192;SDS011;7697;51.630;7.484;2023-04-10T18:56:50;5.22;;;3.78;;
15192;SDS011;7697;51.630;7.484;2023-04-10T19:01:52;4.90;;;3.33;;
15192;SDS011;7697;51.630;7.484;2023-04-10T19:06:54;5.03;;;3.13;;
15192;SDS011;7697;51.630;7.484;2023-04-10T19:11:57;3.78;;;2.88;;
15192;SDS011;7697;51.630;7.484;2023-04-10T19:17:00;3.28;;;2.55;;
15192;SDS011;7697;51.630;7.484;2023-04-10T19:22:05;4.30;;;3.00;;
15192;SDS011;7697;51.630;7.484;2023-04-10T19:27:08;4.63;;;3.40;;
15192;SDS011;7697;51.630;7.484;2023-04-10T19:32:10;5.50;;;3.70;;
15192;SDS011;7697;51.630;7.484;2023-04-10T19:37:11;4.32;;;3.53;;
15192;SDS011;7697;51.630;7.484;2023-04-10T19:42:15;5.13;;;3.80;;
15192;SDS011;7697;51.630;7.484;2023-04-10T19:47:16;8.50;;;5.20;;
15192;SDS011;7697;51.630;7.484;2023-04-10T19:52:18;5.95;;;4.50;;
15192;SDS011;7697;51.630;7.484;2023-04-10T19:57:22;7.07;;;4.70;;
15192;SDS011;7697;51.630;7.484;2023-04-10T20:02:23;4.18;;;3.50;;
15192;SDS011;7697;51.630;7.484;2023-04-10T20:07:25;3.30;;;2.90;;
15192;SDS011;7697;51.630;7.484;2023-04-10T20:12:31;3.60;;;2.78;;
15192;SDS011;7697;51.630;7.484;2023-04-10T20:17:33;3.63;;;2.42;;
15192;SDS011;7697;51.630;7.484;2023-04-10T20:22:37;4.53;;;2.90;;
15192;SDS011;7697;51.630;7.484;2023-04-10T20:27:40;3.33;;;2.80;;
15192;SDS011;7697;51.630;7.484;2023-04-10T20:32:42;3.47;;;2.80;;
15192;SDS011;7697;51.630;7.484;2023-04-10T20:37:45;2.50;;;2.30;;
15192;SDS011;7697;51.630;7.484;2023-04-10T20:42:49;3.33;;;2.30;;
15192;SDS011;7697;51.630;7.484;2023-04-10T20:47:51;5.05;;;2.10;;
15192;SDS011;7697;51.630;7.484;2023-04-10T20:52:53;4.05;;;2.60;;
15192;SDS011;7697;51.630;7.484;2023-04-10T20:57:56;4.82;;;3.28;;
15192;SDS011;7697;51.630;7.484;2023-04-10T21:02:58;5.32;;;2.72;;
15192;SDS011;7697;51.630;7.484;2023-04-10T21:08:00;2.90;;;1.90;;
15192;SDS011;7697;51.630;7.484;2023-04-10T21:13:03;4.38;;;1.70;;
15192;SDS011;7697;51.630;7.484;2023-04-10T21:18:05;3.42;;;2.13;;
15192;SDS011;7697;51.630;7.484;2023-04-10T21:23:07;2.95;;;2.33;;
15192;SDS011;7697;51.630;7.484;2023-04-10T21:28:11;5.78;;;3.20;;
15192;SDS011;7697;51.630;7.484;2023-04-10T21:33:13;3.03;;;1.70;;
15192;SDS011;7697;51.630;7.484;2023-04-10T21:38:15;2.15;;;1.50;;
15192;SDS011;7697;51.630;7.484;2023-04-10T21:43:18;4.18;;;2.20;;
15192;SDS011;7697;51.630;7.484;2023-04-10T21:48:20;2.92;;;1.80;;
15192;SDS011;7697;51.630;7.484;2023-04-10T21:53:21;2.38;;;1.40;;
15192;SDS011;7697;51.630;7.484;2023-04-10T21:58:24;3.35;;;1.35;;
15192;SDS011;7697;51.630;7.484;2023-04-10T22:03:26;2.05;;;1.40;;
15192;SDS011;7697;51.630;7.484;2023-04-10T22:08:28;1.40;;;1.10;;
15192;SDS011;7697;51.630;7.484;2023-04-10T22:13:32;3.67;;;1.20;;
15192;SDS011;7697;51.630;7.484;2023-04-10T22:18:33;1.85;;;1.15;;
15192;SDS011;7697;51.630;7.484;2023-04-10T22:23:35;2.70;;;1.27;;
15192;SDS011;7697;51.630;7.484;2023-04-10T22:28:38;1.95;;;1.23;;
15192;SDS011;7697;51.630;7.484;2023-04-10T22:33:40;1.13;;;0.82;;
15192;SDS011;7697;51.630;7.484;2023-04-10T22:38:45;1.13;;;1.02;;
15192;SDS011;7697;51.630;7.484;2023-04-10T22:43:48;1.42;;;1.00;;
15192;SDS011;7697;51.630;7.484;2023-04-10T22:48:52;1.20;;;1.00;;
15192;SDS011;7697;51.630;7.484;2023-04-10T22:53:54;2.35;;;1.50;;
15192;SDS011;7697;51.630;7.484;2023-04-10T22:58:57;2.05;;;1.33;;
15192;SDS011;7697;51.630;7.484;2023-04-10T23:03:59;3.33;;;1.23;;
15192;SDS011;7697;51.630;7.484;2023-04-10T23:09:01;1.73;;;1.05;;
15192;SDS011;7697;51.630;7.484;2023-04-10T23:14:04;2.00;;;1.23;;
15192;SDS011;7697;51.630;7.484;2023-04-10T23:19:06;2.33;;;1.08;;
15192;SDS011;7697;51.630;7.484;2023-04-10T23:29:34;2.22;;;1.20;;
15192;SDS011;7697;51.630;7.484;2023-04-10T23:34:35;1.90;;;1.10;;
15192;SDS011;7697;51.630;7.484;2023-04-10T23:39:39;1.25;;;1.10;;
15192;SDS011;7697;51.630;7.484;2023-04-10T23:44:41;2.45;;;1.20;;
15192;SDS011;7697;51.630;7.484;2023-04-10T23:49:43;2.45;;;1.40;;
15192;SDS011;7697;51.630;7.484;2023-04-10T23:54:46;4.95;;;2.50;;
15192;SDS011;7697;51.630;7.484;2023-04-10T23:59:48;2.72;;;1.77;;
